Terminal Aerodrome Forecast
Issued by NWS

Home | Current Version | Previous Version | Text Only | Print | Product List | Glossary On
Versions: 1 2 3 4 5 6 7 8 9 10 11 12 13 14
005
FTUS43 KIND 240523
TAFLAF
TAF
KLAF 240523Z 2406/2506 00000KT P6SM SKC
     FM241500 20007KT P6SM SCT050
     FM242100 20007KT P6SM SCT050 BKN150
      AMD LTD TO CLD VIS AND WIND TIL 241300=

USA.gov is the U.S. government's official web portal to all federal, state and local government web resources and services.